createdAt,value
2018-12-19T00:01:05.822Z,2.18
2018-12-19T00:02:15.946Z,2.18
2018-12-19T00:03:26.031Z,2.27
2018-12-19T00:04:36.084Z,2.26
2018-12-19T00:05:46.190Z,2.29
2018-12-19T00:06:55.994Z,2.24
2018-12-19T00:08:06.502Z,2.3
2018-12-19T00:09:16.561Z,2.26
2018-12-19T00:10:26.402Z,2.33
2018-12-19T00:11:36.453Z,2.34
2018-12-19T00:12:46.499Z,2.29
2018-12-19T00:13:56.286Z,2.31
2018-12-19T00:15:06.351Z,2.3
2018-12-19T00:16:16.432Z,2.4
2018-12-19T00:17:26.499Z,2.3
2018-12-19T00:18:36.304Z,2.31
2018-12-19T00:19:46.352Z,2.34
2018-12-19T00:20:56.430Z,2.29
2018-12-19T00:22:06.213Z,2.27
2018-12-19T00:23:16.269Z,2.3
2018-12-19T00:24:26.332Z,2.4
2018-12-19T00:25:36.184Z,2.38
2018-12-19T00:26:45.992Z,2.38
2018-12-19T00:27:55.821Z,2.33
2018-12-19T00:29:06.284Z,2.31
2018-12-19T00:30:16.084Z,2.36
2018-12-19T00:31:26.211Z,2.41
2018-12-19T00:32:36.256Z,2.41
2018-12-19T00:33:45.780Z,2.45
2018-12-19T00:34:55.818Z,2.51
2018-12-19T00:36:05.873Z,2.49
2018-12-19T00:37:15.916Z,2.47
2018-12-19T00:38:25.702Z,2.48
2018-12-19T00:39:35.491Z,2.62
2018-12-19T00:40:45.289Z,2.6
2018-12-19T00:41:55.098Z,2.59
2018-12-19T00:43:05.291Z,2.63
2018-12-19T00:44:15.095Z,2.67
2018-12-19T00:45:25.156Z,2.62
2018-12-19T00:46:35.211Z,2.65
2018-12-19T00:47:45.260Z,2.7
2018-12-19T00:48:54.784Z,2.72
2018-12-19T00:50:05.987Z,2.76
2018-12-19T00:51:16.064Z,2.6
2018-12-19T00:52:26.096Z,2.7
2018-12-19T00:53:35.904Z,2.77
2018-12-19T00:54:45.441Z,2.69
2018-12-19T00:55:55.463Z,2.72
2018-12-19T00:57:05.318Z,2.76
2018-12-19T00:58:15.385Z,2.76
2018-12-19T00:59:25.440Z,2.69
2018-12-19T01:00:35.731Z,2.72
2018-12-19T01:01:45.771Z,2.73
2018-12-19T01:02:55.829Z,2.73
2018-12-19T01:04:05.623Z,2.78
2018-12-19T01:05:15.690Z,2.78
2018-12-19T01:06:25.540Z,2.77
2018-12-19T01:07:35.326Z,2.7
2018-12-19T01:08:45.381Z,2.69
2018-12-19T01:09:55.163Z,2.76
2018-12-19T01:11:04.702Z,2.78
2018-12-19T01:12:14.903Z,2.7
2018-12-19T01:13:24.948Z,2.69
2018-12-19T01:14:35.000Z,2.69
2018-12-19T01:15:44.780Z,2.72
2018-12-19T01:16:54.817Z,2.77
2018-12-19T01:18:04.870Z,2.7
2018-12-19T01:19:14.911Z,2.72
2018-12-19T01:20:24.979Z,2.76
2018-12-19T01:21:35.021Z,2.77
2018-12-19T01:22:44.846Z,2.72
2018-12-19T01:23:54.958Z,2.62
2018-12-19T01:25:06.172Z,2.78
2018-12-19T01:26:16.232Z,2.55
2018-12-19T01:27:26.042Z,2.7
2018-12-19T01:28:36.085Z,2.62
2018-12-19T01:29:45.892Z,2.63
2018-12-19T01:30:55.664Z,2.69
2018-12-19T01:32:05.770Z,2.63
2018-12-19T01:33:15.824Z,2.65
2018-12-19T01:34:25.868Z,2.6
2018-12-19T01:35:35.679Z,2.65
2018-12-19T01:36:45.732Z,2.58
2018-12-19T01:37:55.514Z,2.62
2018-12-19T01:39:05.597Z,2.6
2018-12-19T01:40:15.388Z,2.6
2018-12-19T01:41:25.179Z,2.59
2018-12-19T01:42:34.956Z,2.58
2018-12-19T01:43:44.994Z,2.54
2018-12-19T01:44:55.035Z,2.62
2018-12-19T01:46:04.846Z,2.58
2018-12-19T01:47:14.991Z,2.49
2018-12-19T01:48:25.028Z,2.48
2018-12-19T01:49:34.837Z,2.52
2018-12-19T01:50:44.877Z,2.52
2018-12-19T01:51:54.674Z,2.51
2018-12-19T01:53:04.726Z,2.52
2018-12-19T01:54:14.763Z,2.52
2018-12-19T01:55:24.300Z,2.54
2018-12-19T01:56:34.348Z,2.52
2018-12-19T01:57:44.395Z,2.6
2018-12-19T01:58:54.233Z,2.49
2018-12-19T02:00:04.284Z,2.48
2018-12-19T02:01:14.332Z,2.47
2018-12-19T02:02:24.130Z,2.47
2018-12-19T02:03:33.932Z,2.58
2018-12-19T02:04:43.965Z,2.63
2018-12-19T02:05:54.017Z,2.49
2018-12-19T02:07:04.082Z,2.59
2018-12-19T02:08:13.870Z,2.59
2018-12-19T02:09:28.823Z,2.62
2018-12-19T02:10:39.024Z,2.66
2018-12-19T02:11:49.062Z,2.58
2018-12-19T02:12:59.125Z,2.59
2018-12-19T02:14:09.168Z,2.6
2018-12-19T02:15:18.999Z,2.62
2018-12-19T02:16:29.061Z,2.63
2018-12-19T02:17:38.867Z,2.6
2018-12-19T02:18:48.897Z,2.67
2018-12-19T02:19:58.973Z,2.59
2018-12-19T02:21:09.022Z,2.59
2018-12-19T02:22:19.106Z,2.55
2018-12-19T02:23:29.123Z,2.67
2018-12-19T02:24:39.177Z,2.66
2018-12-19T02:25:49.229Z,2.62
2018-12-19T02:26:59.263Z,2.73
2018-12-19T02:28:09.310Z,2.73
2018-12-19T02:29:19.124Z,2.7
2018-12-19T02:30:29.173Z,2.76
2018-12-19T02:31:38.968Z,2.67
2018-12-19T02:32:48.801Z,2.72
2018-12-19T02:33:58.591Z,2.67
2018-12-19T02:35:08.639Z,2.66
2018-12-19T02:36:18.703Z,2.6
2018-12-19T02:37:28.756Z,2.7
2018-12-19T02:38:38.313Z,2.65
2018-12-19T02:39:48.377Z,2.73
2018-12-19T02:40:58.450Z,2.69
2018-12-19T02:42:08.696Z,2.8
2018-12-19T02:43:18.479Z,2.6
2018-12-19T02:44:28.260Z,2.81
2018-12-19T02:45:37.800Z,2.72
2018-12-19T02:46:47.859Z,2.7
2018-12-19T02:47:57.946Z,2.76
2018-12-19T02:49:08.000Z,2.73
2018-12-19T02:50:17.546Z,2.69
2018-12-19T02:51:27.732Z,2.72
2018-12-19T02:52:37.798Z,2.78
2018-12-19T02:53:47.858Z,2.77
2018-12-19T02:54:57.398Z,2.77
2018-12-19T02:56:07.463Z,2.78
2018-12-19T02:57:17.572Z,2.73
2018-12-19T02:58:27.635Z,2.84
2018-12-19T02:59:37.411Z,2.77
2018-12-19T03:00:47.445Z,2.81
2018-12-19T03:01:57.507Z,2.93
2018-12-19T03:03:07.378Z,2.88
2018-12-19T03:34:51.949Z,0.78
2018-12-19T03:36:02.535Z,0.67
2018-12-19T03:37:12.580Z,0.71
2018-12-19T03:38:22.359Z,0.71
2018-12-19T03:39:32.414Z,0.72
2018-12-19T03:40:42.460Z,0.67
2018-12-19T03:41:52.561Z,0.82
2018-12-19T03:43:02.768Z,0.9
2018-12-19T03:44:12.816Z,0.97
2018-12-19T03:45:22.874Z,0.96
2018-12-19T03:46:32.984Z,1.12
2018-12-19T03:47:43.088Z,1.2
2018-12-19T03:48:53.145Z,1.3
2018-12-19T03:50:03.784Z,1.4
2018-12-19T03:51:13.858Z,1.54
2018-12-19T03:52:23.914Z,1.65
2018-12-19T03:53:33.737Z,1.66
2018-12-19T03:54:43.855Z,1.74
2018-12-19T03:55:53.911Z,1.74
2018-12-19T03:57:03.708Z,1.84
2018-12-19T03:58:13.810Z,1.83
2018-12-19T03:59:23.857Z,1.89
2018-12-19T04:00:33.909Z,1.93
2018-12-19T04:01:43.962Z,1.98
2018-12-19T04:02:53.766Z,2.01
2018-12-19T04:04:03.878Z,1.98
2018-12-19T04:05:13.930Z,1.94
2018-12-19T04:06:24.004Z,2.06
2018-12-19T04:07:33.814Z,2.12
2018-12-19T04:08:43.886Z,2.15
2018-12-19T04:10:00.656Z,2.22
2018-12-19T04:11:10.704Z,2.11
2018-12-19T04:12:20.787Z,2.22
2018-12-19T04:13:30.825Z,2.13
2018-12-19T04:14:40.881Z,2.13
2018-12-19T04:15:51.097Z,2.15
2018-12-19T04:17:01.658Z,2.13
2018-12-19T04:18:11.726Z,2.13
2018-12-19T04:19:21.801Z,2.13
2018-12-19T04:20:31.854Z,2.05
2018-12-19T04:21:41.900Z,2.13
2018-12-19T04:22:51.956Z,2.05
2018-12-19T04:24:02.029Z,2.13
2018-12-19T04:25:11.836Z,2.12
2018-12-19T04:26:21.881Z,2.08
2018-12-19T04:27:31.934Z,2.11
2018-12-19T04:28:41.745Z,2.09
2018-12-19T04:29:51.892Z,2.13
2018-12-19T04:31:01.956Z,2.15
2018-12-19T04:32:12.014Z,2.04
2018-12-19T04:33:22.211Z,2.09
2018-12-19T04:34:32.248Z,2.12
2018-12-19T04:35:42.286Z,2.18
2018-12-19T04:36:52.348Z,2.15
2018-12-19T04:38:02.139Z,2.16
2018-12-19T04:39:12.301Z,2.16
2018-12-19T04:40:22.349Z,2.13
2018-12-19T04:41:32.407Z,2.23
2018-12-19T04:42:42.462Z,2.22
2018-12-19T04:43:52.241Z,2.24
2018-12-19T04:45:02.294Z,2.11
2018-12-19T04:46:12.350Z,2.18
2018-12-19T04:47:21.889Z,2.15
2018-12-19T04:48:31.684Z,2.12
2018-12-19T04:49:41.762Z,2.23
2018-12-19T04:50:51.568Z,2.22
2018-12-19T04:52:01.622Z,2.15
2018-12-19T04:53:11.679Z,2.26
2018-12-19T04:54:22.404Z,2.2
2018-12-19T04:55:32.199Z,2.2
2018-12-19T04:56:42.250Z,2.26
2018-12-19T04:57:52.314Z,2.23
2018-12-19T04:59:02.361Z,2.23
2018-12-19T05:00:12.405Z,2.2
2018-12-19T05:01:22.466Z,2.22
2018-12-19T05:02:32.577Z,2.23
2018-12-19T05:03:42.641Z,2.27
2018-12-19T05:04:52.695Z,2.23
2018-12-19T05:06:03.907Z,2.23
2018-12-19T05:07:13.949Z,2.3
2018-12-19T05:08:24.009Z,2.31
2018-12-19T05:09:34.052Z,2.27
2018-12-19T05:10:44.079Z,2.24
2018-12-19T05:11:54.135Z,2.36
2018-12-19T05:13:04.285Z,2.3
2018-12-19T05:14:14.384Z,2.29
2018-12-19T05:15:24.435Z,2.3
2018-12-19T05:16:34.244Z,2.3
2018-12-19T05:17:44.319Z,2.27
2018-12-19T05:18:54.383Z,2.33
2018-12-19T05:20:04.490Z,2.38
2018-12-19T05:21:14.528Z,2.27
2018-12-19T05:22:24.574Z,2.33
2018-12-19T05:23:34.370Z,2.36
2018-12-19T05:24:44.413Z,2.33
2018-12-19T05:25:54.205Z,2.34
2018-12-19T05:27:04.271Z,2.45
2018-12-19T05:28:14.332Z,2.38
2018-12-19T05:29:24.399Z,2.41
2018-12-19T05:30:34.185Z,2.47
2018-12-19T05:31:44.256Z,2.44
2018-12-19T05:32:54.290Z,2.49
2018-12-19T05:34:04.332Z,2.52
2018-12-19T05:35:14.368Z,2.63
2018-12-19T05:36:24.408Z,2.6
2018-12-19T05:37:34.570Z,2.62
2018-12-19T05:38:44.625Z,2.66
2018-12-19T05:39:54.662Z,2.6
2018-12-19T05:41:04.726Z,2.65
2018-12-19T05:42:14.785Z,2.69
2018-12-19T05:43:24.831Z,2.69
2018-12-19T05:44:34.894Z,2.8
2018-12-19T05:45:44.934Z,2.76
2018-12-19T05:46:53.962Z,2.81
2018-12-19T05:48:03.992Z,2.78
2018-12-19T05:49:14.030Z,2.84
2018-12-19T05:50:24.077Z,2.83
2018-12-19T05:51:33.608Z,2.77
2018-12-19T05:52:43.394Z,2.85
2018-12-19T05:53:53.431Z,2.9
2018-12-19T05:55:03.504Z,2.91
2018-12-19T05:56:13.305Z,2.95
2018-12-19T05:57:23.078Z,2.9
2018-12-19T05:58:32.881Z,2.98
2018-12-19T05:59:42.667Z,2.93
2018-12-19T06:00:52.460Z,2.95
2018-12-19T06:02:02.521Z,2.99
2018-12-19T06:03:12.566Z,3.01
2018-12-19T06:04:22.628Z,3.13
2018-12-19T06:05:32.679Z,2.99
2018-12-19T06:06:42.525Z,3.03
2018-12-19T06:07:52.304Z,3.11
2018-12-19T06:09:02.357Z,3.16
2018-12-19T06:10:12.413Z,3.03
2018-12-19T06:11:22.459Z,3.08
2018-12-19T06:12:32.542Z,3.09
2018-12-19T06:13:42.593Z,3.11
2018-12-19T06:14:52.375Z,3.19
2018-12-19T06:16:02.422Z,3.16
2018-12-19T06:17:12.487Z,3.13
2018-12-19T06:18:22.634Z,3.21
2018-12-19T06:19:32.439Z,3.26
2018-12-19T06:20:42.511Z,3.26
2018-12-19T06:21:52.300Z,3.26
2018-12-19T06:23:02.345Z,3.23
2018-12-19T06:24:12.390Z,3.34
2018-12-19T06:25:22.471Z,3.3
2018-12-19T06:26:32.522Z,3.39
2018-12-19T06:27:42.567Z,3.37
2018-12-19T06:28:52.380Z,3.49
2018-12-19T06:30:02.435Z,3.43
2018-12-19T06:31:12.235Z,3.46
2018-12-19T06:32:22.293Z,3.45
2018-12-19T06:33:32.096Z,3.45
2018-12-19T06:34:42.128Z,3.49
2018-12-19T06:35:52.185Z,3.53
2018-12-19T06:37:01.987Z,3.57
2018-12-19T06:38:11.778Z,3.6
2018-12-19T06:39:21.895Z,3.51
2018-12-19T06:40:37.613Z,3.56
2018-12-19T06:41:47.906Z,3.51
2018-12-19T06:42:57.729Z,3.53
2018-12-19T06:44:07.824Z,3.46
2018-12-19T06:45:17.921Z,3.53
2018-12-19T06:46:27.967Z,3.56
2018-12-19T06:47:38.022Z,3.67
2018-12-19T06:48:48.081Z,3.58
2018-12-19T06:49:57.879Z,3.64
2018-12-19T06:51:08.027Z,3.75
2018-12-19T06:52:18.064Z,3.72
2018-12-19T06:53:28.160Z,3.78
2018-12-19T06:54:38.198Z,3.78
2018-12-19T06:55:48.272Z,3.85
2018-12-19T06:56:58.062Z,3.9
2018-12-19T06:58:07.853Z,3.81
2018-12-19T06:59:17.463Z,3.86
2018-12-19T07:00:27.526Z,3.9
2018-12-19T07:01:37.389Z,3.97
2018-12-19T07:02:47.198Z,3.97
2018-12-19T07:03:57.244Z,4.03
2018-12-19T07:05:07.286Z,4.04
2018-12-19T07:06:17.343Z,4.04
2018-12-19T07:07:27.135Z,4.11
2018-12-19T07:08:37.177Z,4.17
2018-12-19T07:09:46.994Z,4.17
2018-12-19T07:10:57.050Z,4.18
2018-12-19T07:12:07.110Z,4.22
2018-12-19T07:13:17.323Z,4.2
2018-12-19T07:14:27.358Z,4.35
2018-12-19T07:15:37.420Z,4.44
2018-12-19T07:16:48.450Z,4.5
2018-12-19T07:17:58.267Z,4.5
2018-12-19T07:19:08.062Z,4.48
2018-12-19T07:20:18.124Z,4.46
2018-12-19T07:21:28.509Z,4.54
2018-12-19T07:22:38.620Z,4.57
2018-12-19T07:23:48.419Z,4.53
2018-12-19T07:24:58.450Z,4.54
2018-12-19T07:26:08.743Z,4.65
2018-12-19T07:27:18.795Z,4.64
2018-12-19T07:28:28.842Z,4.75
2018-12-19T07:29:38.888Z,4.75
2018-12-19T07:30:48.690Z,4.79
2018-12-19T07:31:58.739Z,4.83
2018-12-19T07:33:08.774Z,4.79
2018-12-19T07:34:18.875Z,4.92
2018-12-19T07:35:28.940Z,4.98
2018-12-19T07:36:38.995Z,5.02
2018-12-19T07:37:49.037Z,5.02
2018-12-19T07:38:59.099Z,5.06
2018-12-19T07:40:09.213Z,5.03
2018-12-19T07:41:19.257Z,5.09
2018-12-19T07:42:29.302Z,5.09
2018-12-19T07:43:39.103Z,5.09
2018-12-19T07:44:49.149Z,5.1
2018-12-19T07:45:59.236Z,5.09
2018-12-19T07:47:09.032Z,5.21
2018-12-19T07:48:19.095Z,5.13
2018-12-19T07:49:29.159Z,5.18
2018-12-19T07:50:38.962Z,5.13
2018-12-19T07:51:48.505Z,5.1
2018-12-19T07:52:58.567Z,5.2
2018-12-19T07:54:08.620Z,5.23
2018-12-19T07:55:18.703Z,5.23
2018-12-19T07:56:28.754Z,5.21
2018-12-19T07:57:38.929Z,5.26
2018-12-19T07:58:48.753Z,5.26
2018-12-19T07:59:58.817Z,5.27
2018-12-19T08:01:08.874Z,5.27
2018-12-19T08:02:18.945Z,5.33
2018-12-19T08:03:29.001Z,5.41
2018-12-19T08:04:39.083Z,5.33
2018-12-19T08:05:48.883Z,5.48
2018-12-19T08:06:58.967Z,5.45
2018-12-19T08:08:09.006Z,5.45
2018-12-19T08:09:19.083Z,5.55
2018-12-19T08:10:29.123Z,5.55
2018-12-19T08:11:39.196Z,5.6
2018-12-19T08:12:49.258Z,5.59
2018-12-19T08:13:59.049Z,5.7
2018-12-19T08:15:09.103Z,5.72
2018-12-19T08:16:18.905Z,5.81
2018-12-19T08:17:28.980Z,5.75
2018-12-19T08:18:39.030Z,5.89
2018-12-19T08:19:48.848Z,5.87
2018-12-19T08:20:59.017Z,5.88
2018-12-19T08:22:09.065Z,5.88
2018-12-19T08:23:18.877Z,6
2018-12-19T08:24:28.933Z,6.02
2018-12-19T08:25:38.749Z,6.14
2018-12-19T08:26:48.545Z,6.17
2018-12-19T08:27:58.594Z,6.1
2018-12-19T08:29:08.659Z,6.07
2018-12-19T08:30:18.716Z,6.17
2018-12-19T08:31:28.765Z,6.13
2018-12-19T08:32:38.863Z,6.1
2018-12-19T08:33:48.939Z,6.13
2018-12-19T08:34:58.994Z,6.1
2018-12-19T08:36:09.057Z,6.14
2018-12-19T08:37:19.110Z,6.25
2018-12-19T08:38:29.242Z,6.28
2018-12-19T08:39:39.325Z,6.36
2018-12-19T08:40:49.374Z,6.42
2018-12-19T08:42:03.961Z,6.39
2018-12-19T08:43:14.089Z,6.42
2018-12-19T08:44:24.447Z,6.44
2018-12-19T08:45:34.602Z,6.47
2018-12-19T08:46:44.437Z,6.57
2018-12-19T08:47:54.653Z,6.62
2018-12-19T08:49:04.730Z,6.7
2018-12-19T08:50:14.790Z,6.78
2018-12-19T08:51:24.853Z,6.75
2018-12-19T08:52:34.902Z,6.82
2018-12-19T08:53:44.713Z,6.83
2018-12-19T08:54:54.759Z,6.88
2018-12-19T08:56:04.860Z,6.88
2018-12-19T08:57:14.927Z,6.86
2018-12-19T08:58:24.990Z,6.97
2018-12-19T08:59:35.069Z,6.95
2018-12-19T09:00:45.146Z,6.95
2018-12-19T09:01:55.190Z,6.94
2018-12-19T09:03:07.658Z,6.95
2018-12-19T09:04:17.732Z,6.91
2018-12-19T09:05:33.581Z,7.05
2018-12-19T09:06:43.622Z,6.94
2018-12-19T09:07:53.744Z,7.09
2018-12-19T09:09:03.565Z,7.09
2018-12-19T09:10:13.387Z,7.08
2018-12-19T09:11:23.465Z,7.18
2018-12-19T09:12:33.548Z,7.16
2018-12-19T09:13:43.655Z,7.19
2018-12-19T09:14:53.712Z,7.19
2018-12-19T09:16:03.794Z,7.19
2018-12-19T09:17:13.865Z,7.23
2018-12-19T09:18:23.920Z,7.27
2018-12-19T09:19:33.979Z,7.36
2018-12-19T09:20:44.033Z,7.39
2018-12-19T09:21:54.093Z,7.45
2018-12-19T09:23:04.176Z,7.39
2018-12-19T09:24:14.017Z,7.54
2018-12-19T09:25:24.153Z,7.52
2018-12-19T09:26:34.230Z,7.31
2018-12-19T09:27:44.294Z,7.34
2018-12-19T09:28:54.358Z,7.52
2018-12-19T09:30:04.466Z,7.55
2018-12-19T09:31:14.527Z,7.52
2018-12-19T09:32:24.589Z,7.48
2018-12-19T09:33:34.661Z,7.49
2018-12-19T09:34:44.710Z,7.48
2018-12-19T09:35:54.807Z,7.49
2018-12-19T09:37:04.616Z,7.47
2018-12-19T09:38:14.423Z,7.54
2018-12-19T09:39:24.505Z,7.59
2018-12-19T09:40:34.634Z,7.52
2018-12-19T09:41:44.705Z,7.45
2018-12-19T09:42:54.808Z,7.58
2018-12-19T09:44:04.864Z,7.47
2018-12-19T09:45:16.340Z,7.49
2018-12-19T09:46:26.462Z,7.45
2018-12-19T09:47:36.491Z,7.49
2018-12-19T09:48:46.549Z,7.37
2018-12-19T09:49:56.600Z,7.36
2018-12-19T09:51:06.669Z,7.37
2018-12-19T09:52:16.744Z,7.37
2018-12-19T09:53:26.794Z,7.41
2018-12-19T09:54:36.947Z,7.37
2018-12-19T09:55:47.030Z,7.39
2018-12-19T09:56:58.359Z,7.37
2018-12-19T09:58:08.158Z,7.34
2018-12-19T09:59:17.958Z,7.41
2018-12-19T10:00:28.014Z,7.41
2018-12-19T10:01:38.059Z,7.48
2018-12-19T10:02:49.375Z,7.49
2018-12-19T10:04:01.265Z,7.54
2018-12-19T10:05:11.304Z,7.54
2018-12-19T10:06:22.111Z,7.63
2018-12-19T10:07:32.012Z,7.64
2018-12-19T10:08:42.098Z,7.59
2018-12-19T10:09:52.172Z,7.61
2018-12-19T10:11:02.482Z,7.54
2018-12-19T10:12:12.544Z,7.59
2018-12-19T10:13:24.120Z,7.63
2018-12-19T10:14:37.163Z,7.7
2018-12-19T10:15:50.848Z,7.75
2018-12-19T10:17:23.488Z,7.82
2018-12-19T10:18:59.531Z,7.85
2018-12-19T10:20:22.279Z,7.83
2018-12-19T10:21:35.161Z,7.82
2018-12-19T10:22:47.927Z,7.74
2018-12-19T10:24:01.098Z,7.73
2018-12-19T10:25:14.311Z,7.64
2018-12-19T10:26:27.976Z,7.67
2018-12-19T10:27:41.491Z,7.7
2018-12-19T10:28:54.949Z,7.73
2018-12-19T10:30:10.203Z,7.61
2018-12-19T10:31:22.217Z,7.7
2018-12-19T10:32:39.093Z,7.74
2018-12-19T10:34:03.021Z,7.73
2018-12-19T10:35:23.723Z,7.86
2018-12-19T10:36:42.712Z,7.92
2018-12-19T10:37:58.393Z,7.86
2018-12-19T10:39:12.411Z,7.86
2018-12-19T10:40:25.014Z,7.88
2018-12-19T10:41:36.627Z,7.83
2018-12-19T10:42:49.068Z,7.77
2018-12-19T10:44:01.658Z,7.78
2018-12-19T10:45:14.465Z,7.75
2018-12-19T10:46:26.557Z,7.73
2018-12-19T10:47:36.885Z,7.64
2018-12-19T10:48:49.015Z,7.61
2018-12-19T10:50:01.414Z,7.67
2018-12-19T10:55:57.989Z,7.59
2018-12-19T10:57:08.419Z,7.58
2018-12-19T10:58:18.518Z,7.55
2018-12-19T10:59:28.603Z,7.56
2018-12-19T11:00:38.707Z,7.56
2018-12-19T11:01:48.835Z,7.63
2018-12-19T11:02:58.955Z,7.73
2018-12-19T11:04:09.033Z,7.75
2018-12-19T11:05:18.944Z,7.78
2018-12-19T11:06:29.238Z,7.82
2018-12-19T11:07:39.073Z,7.93
2018-12-19T11:08:48.866Z,7.92
2018-12-19T11:09:58.943Z,7.86
2018-12-19T11:11:09.025Z,7.92
2018-12-19T11:12:19.100Z,7.89
2018-12-19T11:13:29.190Z,7.91
2018-12-19T11:14:39.285Z,7.85
2018-12-19T11:15:49.361Z,7.91
2018-12-19T11:16:59.433Z,7.86
2018-12-19T11:18:09.533Z,7.95
2018-12-19T11:19:19.686Z,7.98
2018-12-19T11:20:29.500Z,8.14
2018-12-19T11:21:39.374Z,8.25
2018-12-19T11:22:49.712Z,8.29
2018-12-19T11:23:59.778Z,8.24
2018-12-19T11:25:09.854Z,8.26
2018-12-19T11:26:19.910Z,8.26
2018-12-19T11:27:29.977Z,8.24
2018-12-19T11:28:39.798Z,8.26
2018-12-19T11:29:49.883Z,8.28
2018-12-19T11:31:00.074Z,8.17
2018-12-19T11:32:10.465Z,8.19
2018-12-19T11:33:20.564Z,8.29
2018-12-19T11:34:30.618Z,8.17
2018-12-19T11:35:40.677Z,8.22
2018-12-19T11:36:50.754Z,8.17
2018-12-19T11:38:03.493Z,8.21
2018-12-19T11:39:13.589Z,8.11
2018-12-19T11:40:23.412Z,7.99
2018-12-19T11:41:38.886Z,7.99
2018-12-19T11:42:49.273Z,7.99
2018-12-19T11:43:59.336Z,8.04
2018-12-19T11:45:09.152Z,7.96
2018-12-19T11:46:19.210Z,7.92
2018-12-19T11:47:29.535Z,7.93
2018-12-19T11:48:39.657Z,7.91
2018-12-19T11:49:49.481Z,7.96
2018-12-19T11:50:59.643Z,7.78
2018-12-19T11:52:10.368Z,7.89
2018-12-19T11:53:20.452Z,7.86
2018-12-19T11:54:34.145Z,7.91
2018-12-19T11:55:44.205Z,7.78
2018-12-19T11:56:54.295Z,7.89
2018-12-19T11:58:05.719Z,7.85
2018-12-19T11:59:15.597Z,7.99
2018-12-19T12:00:25.708Z,7.92
2018-12-19T12:01:41.263Z,7.98
2018-12-19T12:03:32.624Z,7.92
2018-12-19T12:05:10.992Z,7.85
2018-12-19T12:06:20.829Z,7.88
2018-12-19T12:07:30.659Z,7.88
2018-12-19T12:08:40.510Z,7.78
2018-12-19T12:09:50.628Z,7.8
2018-12-19T12:11:02.983Z,7.85
2018-12-19T12:12:13.035Z,7.88
2018-12-19T12:13:23.140Z,7.85
2018-12-19T12:14:32.987Z,7.85
2018-12-19T12:15:43.067Z,7.82
2018-12-19T12:16:53.135Z,7.92
2018-12-19T12:18:05.614Z,7.77
2018-12-19T12:19:15.435Z,7.82
2018-12-19T12:20:25.266Z,7.74
2018-12-19T12:21:35.374Z,7.82
2018-12-19T12:22:46.148Z,7.78
2018-12-19T12:23:56.240Z,7.82
2018-12-19T12:25:07.839Z,7.91
2018-12-19T12:26:17.832Z,7.78
2018-12-19T12:27:28.061Z,7.91
2018-12-19T12:28:37.979Z,7.95
2018-12-19T12:29:48.096Z,7.93
2018-12-19T12:30:57.954Z,8.1
2018-12-19T12:32:08.069Z,8.04
2018-12-19T12:33:18.132Z,8.01
2018-12-19T12:34:28.207Z,8.03
2018-12-19T12:35:38.301Z,8.09
2018-12-19T12:36:48.419Z,8.09
2018-12-19T12:37:58.525Z,7.95
2018-12-19T12:39:11.058Z,7.8
2018-12-19T12:40:20.603Z,7.88
2018-12-19T12:41:31.443Z,7.92
2018-12-19T12:42:41.519Z,7.93
2018-12-19T12:43:51.567Z,7.86
2018-12-19T12:45:01.448Z,7.75
2018-12-19T12:46:11.514Z,7.78
2018-12-19T12:47:21.600Z,7.7
2018-12-19T12:48:31.706Z,7.59
2018-12-19T12:49:41.824Z,7.68
2018-12-19T12:50:51.683Z,7.54
2018-12-19T12:52:01.916Z,7.55
2018-12-19T12:53:11.780Z,7.52
2018-12-19T12:54:21.973Z,7.56
2018-12-19T12:55:32.120Z,7.51
2018-12-19T12:56:42.428Z,7.37
2018-12-19T12:57:52.455Z,7.37
2018-12-19T12:59:02.336Z,7.26
2018-12-19T13:00:12.537Z,7.21
2018-12-19T13:01:22.763Z,7.26
2018-12-19T13:02:32.870Z,7.12
2018-12-19T13:03:42.960Z,7.11
2018-12-19T13:04:53.045Z,7.08
2018-12-19T13:06:02.844Z,7.05
2018-12-19T13:07:12.925Z,6.95
2018-12-19T13:08:23.076Z,7.01
2018-12-19T13:09:32.895Z,7
2018-12-19T13:10:42.970Z,6.86
2018-12-19T13:11:58.636Z,6.88
2018-12-19T13:13:08.746Z,6.78
2018-12-19T13:14:18.825Z,6.82
2018-12-19T13:15:28.922Z,6.78
2018-12-19T13:16:39.046Z,6.85
2018-12-19T13:17:49.133Z,6.76
2018-12-19T13:18:59.206Z,6.8
2018-12-19T13:20:10.030Z,6.82
2018-12-19T13:21:19.868Z,6.85
2018-12-19T13:22:29.961Z,6.67
2018-12-19T13:23:40.047Z,6.76
2018-12-19T13:24:50.102Z,6.64
2018-12-19T13:26:00.302Z,6.65
2018-12-19T13:27:10.095Z,6.64
2018-12-19T13:28:20.193Z,6.61
2018-12-19T13:29:30.275Z,6.61
2018-12-19T13:30:40.405Z,6.57
2018-12-19T13:31:50.467Z,6.54
2018-12-19T13:33:00.530Z,6.57
2018-12-19T13:34:10.105Z,6.52
2018-12-19T13:35:20.215Z,6.49
2018-12-19T13:36:30.309Z,6.55
2018-12-19T13:37:40.400Z,6.55
2018-12-19T13:38:50.492Z,6.52
2018-12-19T13:40:02.440Z,6.55
2018-12-19T13:41:12.496Z,6.52
2018-12-19T13:42:22.557Z,6.55
2018-12-19T13:43:32.612Z,6.52
2018-12-19T13:44:42.686Z,6.55
2018-12-19T13:45:52.771Z,6.46
2018-12-19T13:47:04.773Z,6.44
2018-12-19T13:48:14.827Z,6.49
2018-12-19T13:49:24.633Z,6.47
2018-12-19T13:50:34.433Z,6.44
2018-12-19T13:51:44.508Z,6.42
2018-12-19T13:52:54.592Z,6.52
2018-12-19T13:54:04.650Z,6.49
2018-12-19T13:55:14.507Z,6.44
2018-12-19T13:56:24.550Z,6.42
2018-12-19T13:57:34.605Z,6.44
2018-12-19T13:58:44.658Z,6.51
2018-12-19T13:59:54.714Z,6.49
2018-12-19T14:01:04.518Z,6.46
2018-12-19T14:02:14.316Z,6.44
2018-12-19T14:03:24.368Z,6.33
2018-12-19T14:04:34.430Z,6.34
2018-12-19T14:05:44.511Z,6.34
2018-12-19T14:06:54.594Z,6.34
2018-12-19T14:08:04.646Z,6.36
2018-12-19T14:09:14.718Z,6.36
2018-12-19T14:10:24.519Z,6.28
2018-12-19T14:11:34.317Z,6.28
2018-12-19T14:12:44.120Z,6.18
2018-12-19T14:13:54.178Z,6.17
2018-12-19T14:15:03.981Z,6.1
2018-12-19T14:16:14.038Z,6.05
2018-12-19T14:17:23.847Z,6.09
2018-12-19T14:18:33.923Z,6
2018-12-19T14:19:43.982Z,5.95
2018-12-19T14:20:54.096Z,5.91
2018-12-19T14:22:04.187Z,5.89
2018-12-19T14:23:14.321Z,5.8
2018-12-19T14:24:24.421Z,5.77
2018-12-19T14:25:34.496Z,5.77
2018-12-19T14:26:44.573Z,5.73
2018-12-19T14:27:54.658Z,5.73
2018-12-19T14:29:05.256Z,5.66
2018-12-19T14:30:15.332Z,5.57
2018-12-19T14:31:25.155Z,5.66
2018-12-19T14:32:35.234Z,5.63
2018-12-19T14:33:45.296Z,5.59
2018-12-19T14:34:55.362Z,5.59
2018-12-19T14:36:05.435Z,5.55
2018-12-19T14:37:15.491Z,5.44
2018-12-19T14:38:25.297Z,5.45
2018-12-19T14:39:35.096Z,5.46
2018-12-19T14:40:45.222Z,5.42
2018-12-19T14:41:55.036Z,5.42
2018-12-19T14:43:04.841Z,5.31
2018-12-19T14:44:14.924Z,5.44
2018-12-19T14:45:24.996Z,5.33
2018-12-19T14:46:34.803Z,5.37
2018-12-19T14:47:44.621Z,5.3
2018-12-19T14:48:54.710Z,5.2
2018-12-19T14:50:04.769Z,5.27
2018-12-19T14:51:14.840Z,5.2
2018-12-19T14:52:24.911Z,5.2
2018-12-19T14:53:34.726Z,5.12
2018-12-19T14:54:44.533Z,5
2018-12-19T14:55:54.346Z,5.02
2018-12-19T14:57:05.883Z,4.94
2018-12-19T14:58:16.205Z,4.78
2018-12-19T14:59:26.277Z,4.9
2018-12-19T15:00:36.131Z,4.78
2018-12-19T15:01:46.202Z,4.72
2018-12-19T15:02:56.018Z,4.75
2018-12-19T15:04:06.714Z,4.68
2018-12-19T15:05:16.800Z,4.71
2018-12-19T15:06:26.924Z,4.65
2018-12-19T15:07:37.014Z,4.58
2018-12-19T15:08:47.103Z,4.56
2018-12-19T15:09:57.253Z,4.5
2018-12-19T15:11:07.682Z,4.58
2018-12-19T15:12:17.758Z,4.54
2018-12-19T15:13:33.304Z,4.46
2018-12-19T15:14:43.393Z,4.4
2018-12-19T15:15:53.217Z,4.42
2018-12-19T15:17:03.285Z,4.35
2018-12-19T15:18:19.114Z,4.38
2018-12-19T15:19:29.190Z,4.36
2018-12-19T15:20:39.257Z,4.36
2018-12-19T15:21:49.401Z,4.3
2018-12-19T15:22:59.474Z,4.32
2018-12-19T15:24:09.575Z,4.38
2018-12-19T15:25:19.390Z,4.33
2018-12-19T15:26:29.219Z,4.21
2018-12-19T15:27:39.340Z,4.26
2018-12-19T15:28:49.443Z,4.22
2018-12-19T15:29:59.523Z,4.28
2018-12-19T15:31:09.590Z,4.22
2018-12-19T15:32:19.129Z,4.26
2018-12-19T15:33:29.212Z,4.29
2018-12-19T15:34:39.285Z,4.15
2018-12-19T15:35:49.389Z,4.11
2018-12-19T15:36:59.539Z,4.14
2018-12-19T15:38:09.345Z,4.18
2018-12-19T15:39:19.435Z,4.15
2018-12-19T15:40:29.513Z,4.22
2018-12-19T15:41:39.620Z,4.21
2018-12-19T15:42:49.761Z,4.24
2018-12-19T15:43:59.577Z,4.26
2018-12-19T15:45:10.192Z,4.17
2018-12-19T15:46:20.095Z,4.21
2018-12-19T15:47:30.198Z,4.21
2018-12-19T15:48:40.022Z,4.2
2018-12-19T15:49:50.170Z,4.21
2018-12-19T15:51:00.066Z,4.14
2018-12-19T15:52:10.133Z,4.21
2018-12-19T15:53:20.202Z,4.21
2018-12-19T15:54:30.268Z,4.18
2018-12-19T15:55:40.093Z,4.12
2018-12-19T15:56:50.208Z,4.11
2018-12-19T15:58:00.043Z,4.17
2018-12-19T15:59:10.116Z,4.17
2018-12-19T16:00:20.296Z,4.12
2018-12-19T16:01:30.365Z,4.18
2018-12-19T16:02:40.430Z,4.21
2018-12-19T16:03:50.495Z,4.2
2018-12-19T16:05:00.576Z,4.15
2018-12-19T16:06:10.673Z,4.12
2018-12-19T16:07:20.744Z,4.2
2018-12-19T16:08:32.458Z,4.17
2018-12-19T16:09:42.527Z,4.08
2018-12-19T16:10:52.351Z,4.04
2018-12-19T16:12:02.442Z,4.11
2018-12-19T16:13:12.566Z,4.12
2018-12-19T16:14:22.695Z,4.12
2018-12-19T16:15:32.752Z,4.15
2018-12-19T16:16:42.305Z,4.07